Time;durP1;ratioP1;P1;durP2;ratioP2;P2;SDS_P1;SDS_P2;PMS_P1;PMS_P2;Temp;Humidity;BMP_temperature;BMP_pressure;BME280_temperature;BME280_humidity;BME280_pressure;Samples;Min_cycle;Max_cycle;Signal;HPM_P1;HPM_P2
2022/04/04 04:32:55;;;;;;;;;15.67;15.33;;;;;5.74;52.57;101767.50;5048521;28;45606;-51
2022/04/04 04:35:21;;;;;;;;;20.75;16.75;;;;;5.75;52.49;101771.03;5040891;28;45374;-51
2022/04/04 04:37:47;;;;;;;;;12.75;12.75;;;;;5.79;52.20;101772.75;5041623;28;45231;-49
2022/04/04 04:40:14;;;;;;;;;17.33;16.00;;;;;5.74;52.57;101772.81;5041087;28;45330;-48
2022/04/04 04:42:40;;;;;;;;;19.00;16.33;;;;;5.74;52.41;101770.16;5041259;28;47187;-50
2022/04/04 04:45:06;;;;;;;;;15.25;14.00;;;;;5.71;52.23;101763.06;5041212;28;45465;-48
2022/04/04 04:47:33;;;;;;;;;17.00;17.00;;;;;5.63;52.63;101748.97;5041444;28;45202;-48
2022/04/04 04:49:59;;;;;;;;;16.50;13.00;;;;;5.63;52.25;101758.72;5040330;28;45428;-50
2022/04/04 04:52:26;;;;;;;;;16.00;16.00;;;;;5.50;52.62;101755.31;5041184;28;46281;-50
2022/04/04 04:54:52;;;;;;;;;13.67;12.67;;;;;5.52;52.93;101757.97;5048149;28;45478;-48
2022/04/04 04:57:19;;;;;;;;;11.25;11.25;;;;;5.54;52.36;101762.34;5041318;28;45226;-51
2022/04/04 04:59:44;;;;;;;;;14.50;14.50;;;;;5.57;52.36;101762.34;5040879;28;46189;-48
2022/04/04 05:02:09;;;;;;;;;16.67;15.33;;;;;5.55;52.63;101760.56;5056785;28;46313;-51
2022/04/04 05:04:35;;;;;;;;;18.25;16.75;;;;;5.55;52.40;101756.16;5055706;28;45205;-50
2022/04/04 05:07:00;;;;;;;;;12.75;11.25;;;;;5.60;52.71;101757.00;5041139;28;45352;-51
2022/04/04 05:09:25;;;;;;;;;18.00;14.75;;;;;5.59;52.37;101757.00;5040835;28;45385;-49
2022/04/04 05:11:51;;;;;;;;;14.50;14.50;;;;;5.57;52.57;101761.44;5040646;28;45338;-49
2022/04/04 05:14:16;;;;;;;;;17.00;14.75;;;;;5.60;52.41;101767.63;5040634;28;45423;-52
2022/04/04 05:16:43;;;;;;;;;15.75;14.75;;;;;5.64;52.40;101752.50;5022661;28;45367;-48
2022/04/04 05:19:08;;;;;;;;;15.00;15.00;;;;;5.64;52.24;101757.84;5039983;28;45932;-50
2022/04/04 05:21:34;;;;;;;;;17.25;17.25;;;;;5.58;52.39;101757.91;5040668;28;45254;-49
2022/04/04 05:23:59;;;;;;;;;15.25;15.25;;;;;5.48;53.10;101753.56;5040528;28;45534;-49
2022/04/04 05:26:25;;;;;;;;;17.25;15.25;;;;;5.48;52.85;101761.53;5051173;28;45395;-52
2022/04/04 05:28:50;;;;;;;;;16.75;15.50;;;;;5.42;53.16;101762.47;5060399;28;45396;-49
2022/04/04 05:31:15;;;;;;;;;12.75;10.00;;;;;5.40;52.95;101745.66;5060373;28;46050;-50
2022/04/04 05:33:41;;;;;;;;;15.50;15.50;;;;;5.48;52.61;101757.09;5060503;28;45270;-50
2022/04/04 05:36:07;;;;;;;;;15.50;13.25;;;;;5.50;52.67;101759.75;5060802;28;45436;-50
2022/04/04 05:38:33;;;;;;;;;14.25;14.00;;;;;5.53;52.76;101759.72;5060337;28;45966;-49
2022/04/04 05:40:58;;;;;;;;;11.75;11.50;;;;;5.63;52.25;101748.09;5060291;28;46038;-51
2022/04/04 05:43:24;;;;;;;;;17.25;14.50;;;;;5.73;51.94;101757.75;5060229;28;45280;-50
2022/04/04 05:45:49;;;;;;;;;14.00;14.00;;;;;5.64;52.50;101752.50;5060625;28;45293;-50
2022/04/04 05:48:15;;;;;;;;;18.00;14.50;;;;;5.69;52.31;101764.00;5059994;28;45327;-50
2022/04/04 05:50:40;;;;;;;;;21.50;18.00;;;;;5.59;52.72;101752.56;5060168;28;45361;-51
2022/04/04 05:53:06;;;;;;;;;14.25;14.25;;;;;5.58;52.99;101753.47;5060333;28;45486;-49
2022/04/04 05:55:32;;;;;;;;;17.50;17.50;;;;;5.63;53.23;101756.94;5049421;28;45451;-50
2022/04/04 05:57:57;;;;;;;;;15.50;13.75;;;;;5.61;52.69;101761.41;5041276;28;45486;-50
2022/04/04 06:00:22;;;;;;;;;19.25;14.00;;;;;5.56;53.09;101752.59;5040380;28;46041;-49
2022/04/04 06:02:48;;;;;;;;;13.75;13.75;;;;;5.47;53.27;101760.66;5041327;28;45444;-49
2022/04/04 06:05:13;;;;;;;;;15.75;14.25;;;;;5.53;52.86;101749.94;5051818;28;45432;-50
2022/04/04 06:07:40;;;;;;;;;14.50;14.50;;;;;5.63;53.07;101748.97;5056881;28;45932;-51
2022/04/04 06:10:07;;;;;;;;;14.25;14.00;;;;;5.68;52.69;101748.94;5056780;28;46304;-51
2022/04/04 06:12:37;;;;;;;;;13.25;13.25;;;;;5.69;52.31;101750.72;5042146;28;45460;-52
2022/04/04 06:15:03;;;;;;;;;14.00;14.00;;;;;5.58;52.83;101739.28;5053948;28;45408;-52
2022/04/04 06:17:28;;;;;;;;;16.00;14.50;;;;;5.65;52.10;101743.63;5040667;28;45782;-48
2022/04/04 06:19:55;;;;;;;;;13.50;13.00;;;;;5.68;52.61;101741.84;5059483;28;45364;-48
2022/04/04 06:22:22;;;;;;;;;16.75;12.75;;;;;5.77;52.28;101737.31;5059403;28;45343;-49
2022/04/04 06:24:48;;;;;;;;;15.25;15.25;;;;;5.74;52.33;101743.56;5059495;28;45357;-50
2022/04/04 06:27:15;;;;;;;;;12.75;11.75;;;;;5.72;52.37;101737.34;5041599;28;45428;-49
2022/04/04 06:29:41;;;;;;;;;15.00;10.50;;;;;5.72;51.83;101743.56;5039269;28;45942;-51
2022/04/04 06:32:07;;;;;;;;;15.75;14.50;;;;;5.64;52.25;101740.09;5039109;28;45381;-50
2022/04/04 06:34:32;;;;;;;;;15.25;11.00;;;;;5.65;52.63;101738.31;5039374;28;45361;-50
2022/04/04 06:36:57;;;;;;;;;13.75;13.00;;;;;5.69;52.16;101732.97;5039204;28;45377;-49
2022/04/04 06:39:22;;;;;;;;;14.00;14.00;;;;;5.82;51.40;101722.19;5038959;28;45354;-51
2022/04/04 06:41:48;;;;;;;;;14.50;13.50;;;;;5.89;51.01;101729.22;5038916;28;45433;-47
2022/04/04 06:44:13;;;;;;;;;13.25;10.00;;;;;5.88;50.25;101732.78;5039254;28;45305;-48
2022/04/04 06:46:39;;;;;;;;;11.00;11.00;;;;;5.81;49.95;101734.59;5038959;28;45305;-47
2022/04/04 06:49:05;;;;;;;;;18.25;13.50;;;;;5.92;49.90;101726.53;5038996;28;45347;-47
2022/04/04 06:51:32;;;;;;;;;7.50;6.00;;;;;6.13;49.74;101709.44;5038950;28;45398;-48
2022/04/04 06:53:58;;;;;;;;;12.75;10.75;;;;;6.19;48.81;101730.69;5043974;28;45493;-50
2022/04/04 06:56:23;;;;;;;;;5.75;5.75;;;;;6.33;48.73;101712.72;5040342;28;45326;-47
2022/04/04 06:58:50;;;;;;;;;11.75;10.25;;;;;6.41;47.88;101722.38;5038347;28;45309;-49
2022/04/04 07:01:15;;;;;;;;;12.25;10.00;;;;;6.39;47.46;101720.63;5047768;28;45251;-48
2022/04/04 07:03:41;;;;;;;;;7.25;6.75;;;;;6.28;47.12;101722.56;5058869;28;45486;-49
2022/04/04 07:06:07;;;;;;;;;9.75;9.75;;;;;6.31;47.06;101714.53;5041187;28;45332;-47
2022/04/04 07:08:33;;;;;;;;;11.75;9.00;;;;;6.24;46.71;101713.72;5020895;28;48159;-48
2022/04/04 07:11:00;;;;;;;;;9.00;9.00;;;;;6.31;46.68;101712.75;5038370;28;45660;-48
2022/04/04 07:13:25;;;;;;;;;8.75;8.75;;;;;6.26;46.25;101711.06;5038904;28;45298;-48
2022/04/04 07:15:50;;;;;;;;;9.00;9.00;;;;;6.20;46.53;101698.72;5038421;28;45553;-49
2022/04/04 07:18:18;;;;;;;;;7.00;7.00;;;;;6.32;46.38;101706.53;5020124;28;47315;-47
2022/04/04 07:20:43;;;;;;;;;9.00;9.00;;;;;6.47;46.55;101702.75;5038593;28;45525;-48
2022/04/04 07:23:08;;;;;;;;;8.00;7.00;;;;;6.58;46.37;101698.19;5038764;28;45360;-49
2022/04/04 07:25:35;;;;;;;;;8.50;8.25;;;;;6.63;45.77;101709.66;5042219;28;45403;-48
2022/04/04 07:28:01;;;;;;;;;6.00;6.00;;;;;6.58;45.49;101679.53;5058905;28;46475;-48
2022/04/04 07:30:27;;;;;;;;;8.25;8.25;;;;;6.80;45.41;101698.75;5058706;28;45553;-49
2022/04/04 07:32:53;;;;;;;;;11.50;8.75;;;;;6.74;45.59;101696.16;5058343;28;45315;-49
2022/04/04 07:35:19;;;;;;;;;12.50;11.25;;;;;6.70;45.90;101690.03;5058366;28;45391;-48
2022/04/04 07:37:46;;;;;;;;;12.00;10.25;;;;;6.82;45.77;101681.81;5058514;28;45679;-49
2022/04/04 07:40:14;;;;;;;;;10.50;10.00;;;;;6.98;45.31;101687.78;5058077;28;45427;-48
2022/04/04 07:42:42;;;;;;;;;9.75;7.50;;;;;6.89;45.32;101679.94;5058798;28;45348;-47
2022/04/04 07:45:09;;;;;;;;;11.00;10.75;;;;;6.95;45.09;101679.84;5058172;28;45156;-47
2022/04/04 07:47:35;;;;;;;;;10.25;10.00;;;;;6.93;44.80;101673.66;5058055;28;46244;-51
2022/04/04 07:50:01;;;;;;;;;10.75;9.75;;;;;7.09;45.21;101672.50;5058303;28;45376;-49
2022/04/04 07:52:27;;;;;;;;;11.00;8.25;;;;;7.12;44.86;101672.47;5058527;28;45277;-49
2022/04/04 07:54:53;;;;;;;;;9.50;7.75;;;;;7.21;44.89;101668.75;5051955;28;46143;-50
2022/04/04 07:57:19;;;;;;;;;8.25;7.00;;;;;7.26;44.88;101672.22;5038086;28;45457;-49
2022/04/04 07:59:45;;;;;;;;;9.00;8.25;;;;;7.30;44.14;101679.25;5038171;28;45159;-51
2022/04/04 08:02:10;;;;;;;;;12.00;10.50;;;;;7.33;43.53;101659.63;5054847;28;45268;-49
2022/04/04 08:04:36;;;;;;;;;6.50;6.50;;;;;7.32;43.60;101658.75;5052798;28;45535;-51
2022/04/04 08:07:01;;;;;;;;;8.00;8.00;;;;;7.26;44.23;101652.66;5037882;28;45408;-49
2022/04/04 08:09:26;;;;;;;;;6.00;6.00;;;;;7.27;44.40;101654.44;5037927;28;45298;-51
2022/04/04 08:11:54;;;;;;;;;11.00;9.00;;;;;7.17;44.32;101654.59;5038161;28;45336;-51
2022/04/04 08:14:20;;;;;;;;;5.50;5.25;;;;;7.23;44.24;101648.25;5037846;28;45500;-48
2022/04/04 08:16:45;;;;;;;;;8.00;8.00;;;;;7.26;44.09;101629.53;5037958;28;46286;-51
2022/04/04 08:19:13;;;;;;;;;6.25;6.00;;;;;7.37;44.37;101648.91;5037010;28;45388;-45
2022/04/04 08:21:41;;;;;;;;;9.00;6.50;;;;;7.44;43.79;101645.22;5038043;28;45311;-51
2022/04/04 08:24:07;;;;;;;;;8.25;8.25;;;;;7.46;44.23;101639.84;5037716;28;46010;-50
2022/04/04 08:26:33;;;;;;;;;8.25;6.00;;;;;7.35;43.32;101633.81;5049461;28;46021;-48
2022/04/04 08:28:58;;;;;;;;;13.50;9.75;;;;;7.34;43.47;101642.72;5057708;28;45383;-47
2022/04/04 08:31:24;;;;;;;;;10.75;6.00;;;;;7.38;43.16;101625.78;5059870;28;45348;-50
2022/04/04 08:33:50;;;;;;;;;7.25;5.00;;;;;7.32;42.60;101639.19;5061156;28;45384;-50
2022/04/04 08:36:15;;;;;;;;;4.50;3.00;;;;;7.28;43.98;101637.50;5061141;28;46207;-47
2022/04/04 08:38:41;;;;;;;;;7.00;7.00;;;;;7.35;44.05;101632.03;5061134;28;45349;-50
2022/04/04 08:41:09;;;;;;;;;7.50;7.50;;;;;7.45;43.98;101622.09;5061012;28;45471;-51
2022/04/04 08:43:37;;;;;;;;;10.00;6.00;;;;;7.46;43.38;101616.72;5061105;28;45813;-51
2022/04/04 08:46:05;;;;;;;;;9.00;6.50;;;;;7.48;42.80;101614.03;5061252;28;45340;-49
2022/04/04 08:48:32;;;;;;;;;4.75;4.00;;;;;7.59;42.65;101610.22;5061049;28;45611;-51
2022/04/04 08:50:58;;;;;;;;;8.00;6.50;;;;;7.73;42.79;101604.63;5061313;28;45482;-48
2022/04/04 08:53:23;;;;;;;;;6.00;5.75;;;;;7.80;41.68;101614.25;5060760;28;45360;-47
2022/04/04 08:55:49;;;;;;;;;5.00;5.00;;;;;7.79;41.99;101614.28;5047613;28;45371;-50
2022/04/04 08:58:15;;;;;;;;;6.50;5.75;;;;;7.78;41.50;101578.72;5040859;28;45242;-49
2022/04/04 09:00:41;;;;;;;;;4.50;4.50;;;;;7.99;41.03;101620.94;5045179;28;45489;-47
2022/04/04 09:03:06;;;;;;;;;3.00;3.00;;;;;8.03;40.18;101599.53;5060526;28;45260;-50
2022/04/04 09:05:34;;;;;;;;;4.25;4.25;;;;;8.17;40.27;101602.78;5048110;28;45370;-49
2022/04/04 09:08:06;;;;;;;;;6.00;5.50;;;;;8.20;40.22;101608.06;5040755;28;45389;-50
2022/04/04 09:10:39;;;;;;;;;3.75;3.00;;;;;8.18;40.23;101601.84;5040442;28;45396;-48
2022/04/04 09:13:07;;;;;;;;;2.00;2.00;;;;;8.19;39.60;101601.84;5040656;28;45333;-50
2022/04/04 09:15:52;;;;;;;;;3.00;3.00;;;;;8.23;39.55;101595.53;5022461;28;46362;-50
2022/04/04 09:18:19;;;;;;;;;6.25;3.50;;;;;8.47;39.55;101582.53;5040565;28;45421;-49
2022/04/04 09:21:04;;;;;;;;;2.25;2.00;;;;;8.62;37.94;101590.19;5042941;28;45353;-49
2022/04/04 09:23:56;;;;;;;;;3.00;2.00;;;;;8.68;38.10;101590.91;5060569;28;45424;-47
2022/04/04 09:26:39;;;;;;;;;2.00;2.00;;;;;8.68;37.33;101577.53;5059589;28;46211;-52
2022/04/04 09:29:19;;;;;;;;;1.00;1.00;;;;;8.66;37.55;101578.50;5060302;28;45344;-51
2022/04/04 09:32:05;;;;;;;;;2.75;2.75;;;;;8.63;37.03;101578.56;5060601;28;45533;-48
2022/04/04 09:34:49;;;;;;;;;2.00;2.00;;;;;8.78;36.89;101569.28;5060250;28;46068;-49
2022/04/04 09:37:15;;;;;;;;;3.00;3.00;;;;;8.94;36.76;101570.63;5060331;28;46005;-52
2022/04/04 09:39:41;;;;;;;;;3.00;2.00;;;;;8.97;35.13;101551.84;5059908;28;45298;-50
2022/04/04 09:42:17;;;;;;;;;3.25;1.00;;;;;9.01;35.04;101578.50;5060383;28;45379;-49
2022/04/04 09:44:57;;;;;;;;;3.00;2.00;;;;;8.96;34.96;101569.69;5060115;28;45404;-50
2022/04/04 09:47:23;;;;;;;;;2.25;2.00;;;;;9.04;35.44;101559.66;5059967;28;46258;-52
2022/04/04 09:49:49;;;;;;;;;1.00;1.00;;;;;9.16;35.00;101546.91;5060264;28;45391;-50
2022/04/04 09:52:14;;;;;;;;;2.00;2.00;;;;;9.17;33.90;101541.50;5060355;28;45418;-51
2022/04/04 09:54:42;;;;;;;;;3.25;2.00;;;;;9.31;34.35;101542.00;5056728;28;45447;-51
2022/04/04 09:57:14;;;;;;;;;3.50;2.50;;;;;9.24;33.87;101553.78;5039883;28;46306;-52
2022/04/04 09:59:41;;;;;;;;;3.00;2.00;;;;;9.14;34.14;101535.34;5039829;28;45423;-49
2022/04/04 10:02:07;;;;;;;;;2.00;2.00;;;;;9.09;35.36;101532.81;5056031;28;45543;-52
2022/04/04 10:04:33;;;;;;;;;1.25;1.25;;;;;9.17;34.93;101537.94;5055231;28;45340;-50
2022/04/04 10:07:03;;;;;;;;;3.00;2.00;;;;;9.22;34.97;101533.34;5039762;28;45347;-51
2022/04/04 10:09:29;;;;;;;;;1.00;1.00;;;;;9.25;34.50;101528.78;5039417;28;45440;-50
2022/04/04 10:11:57;;;;;;;;;1.00;1.00;;;;;9.38;34.82;101527.50;5039643;28;45415;-51
2022/04/04 10:14:23;;;;;;;;;2.00;2.00;;;;;9.44;35.29;101521.97;5039598;28;45379;-48
2022/04/04 10:16:50;;;;;;;;;4.25;1.25;;;;;9.54;35.49;101517.25;5039335;28;46541;-49
2022/04/04 10:19:17;;;;;;;;;0.25;0.00;;;;;9.55;35.37;101520.78;5039499;28;45440;-50
2022/04/04 10:21:43;;;;;;;;;3.75;2.00;;;;;9.61;34.91;101513.47;5039748;28;45301;-49
2022/04/04 10:24:09;;;;;;;;;5.50;2.00;;;;;9.70;35.14;101502.47;5039334;28;45257;-51
2022/04/04 10:26:35;;;;;;;;;2.75;2.75;;;;;9.91;35.52;101511.66;5050911;28;45473;-51
2022/04/04 10:29:13;;;;;;;;;4.00;2.00;;;;;10.07;34.24;101496.00;5059220;28;45441;-52
2022/04/04 10:31:54;;;;;;;;;2.00;2.00;;;;;10.29;33.78;101496.22;5059330;28;45360;-50
2022/04/04 10:34:25;;;;;;;;;0.00;0.00;;;;;10.29;32.37;101477.47;5059437;28;45542;-52
2022/04/04 10:37:10;;;;;;;;;2.00;2.00;;;;;10.23;32.41;101475.84;5059029;28;46244;-52
2022/04/04 10:39:36;;;;;;;;;1.00;1.00;;;;;10.44;32.35;101485.00;5058611;28;45341;-50
2022/04/04 10:42:22;;;;;;;;;2.50;2.50;;;;;10.45;31.05;101484.94;5059468;28;45467;-51
2022/04/04 10:44:49;;;;;;;;;3.50;2.00;;;;;10.62;30.63;101481.69;5059014;28;46095;-52
2022/04/04 10:47:22;;;;;;;;;5.00;4.00;;;;;10.51;30.54;101475.81;5058985;28;46072;-52
2022/04/04 10:49:47;;;;;;;;;3.50;2.00;;;;;10.66;30.92;101474.41;5059213;28;45376;-48
2022/04/04 10:52:12;;;;;;;;;3.25;3.00;;;;;10.70;30.01;101474.25;5059543;28;45340;-51
2022/04/04 10:54:38;;;;;;;;;2.25;2.25;;;;;10.58;30.92;101485.38;5055609;28;45320;-50
2022/04/04 10:57:16;;;;;;;;;2.25;2.25;;;;;10.67;31.24;101447.53;5038780;28;46074;-53
2022/04/04 10:59:45;;;;;;;;;5.00;2.75;;;;;10.87;30.73;101449.53;5038865;28;45304;-51
2022/04/04 11:02:14;;;;;;;;;3.25;2.00;;;;;11.06;30.07;101463.16;5055562;28;45456;-48
2022/04/04 11:07:38;;;;;;;;;1.75;1.00;;;;;11.16;30.31;101445.75;5051647;28;46042;-50
2022/04/04 11:07:38;;;;;;;;;3.25;2.00;;;;;11.37;30.31;101442.28;5056389;28;45419;-52
2022/04/04 11:10:06;;;;;;;;;3.75;3.25;;;;;11.54;30.99;101434.44;5046958;28;45392;-51
2022/04/04 11:12:57;;;;;;;;;3.00;3.00;;;;;11.63;30.25;101439.47;5053330;28;45317;-50
2022/04/04 11:15:42;;;;;;;;;3.00;1.25;;;;;11.48;31.32;101432.00;5052969;28;46173;-50
2022/04/04 11:18:08;;;;;;;;;2.25;2.25;;;;;11.40;30.82;101415.28;5038215;28;47079;-50
2022/04/04 11:20:33;;;;;;;;;3.00;3.00;;;;;11.32;30.27;101412.03;5057399;28;45440;-49
2022/04/04 11:23:10;;;;;;;;;4.00;2.00;;;;;11.33;30.68;101409.28;5057909;28;45336;-51
2022/04/04 11:25:38;;;;;;;;;3.75;3.50;;;;;11.37;30.34;101420.81;5042535;28;45443;-50
2022/04/04 11:28:05;;;;;;;;;3.00;3.00;;;;;11.28;30.25;101403.25;5057992;28;46977;-52
2022/04/04 11:30:30;;;;;;;;;2.50;2.50;;;;;11.36;30.60;101395.75;5040664;28;45718;-50
2022/04/04 11:32:59;;;;;;;;;3.25;1.75;;;;;11.29;30.54;101414.84;5049448;28;45934;-49
2022/04/04 11:35:30;;;;;;;;;1.75;1.75;;;;;11.34;30.77;101397.63;5038532;28;45493;-51
2022/04/04 11:38:07;;;;;;;;;5.00;3.25;;;;;11.45;30.87;101407.09;5038283;28;46392;-52
2022/04/04 11:40:44;;;;;;;;;7.75;4.00;;;;;11.37;30.51;101394.84;5040415;28;45433;-48
2022/04/04 11:43:14;;;;;;;;;3.50;1.75;;;;;11.20;30.22;101396.41;5038400;28;45514;-50
2022/04/04 11:45:41;;;;;;;;;3.00;3.00;;;;;11.36;31.07;101376.97;5038433;28;45341;-48
2022/04/04 11:48:14;;;;;;;;;3.25;3.00;;;;;11.42;30.66;101378.53;5038312;28;47186;-50
2022/04/04 11:50:40;;;;;;;;;3.00;3.00;;;;;11.59;30.56;101377.88;5052716;28;45717;-51
2022/04/04 11:53:17;;;;;;;;;3.00;3.00;;;;;11.40;31.05;101376.88;5058510;28;45460;-49
2022/04/04 11:55:45;;;;;;;;;6.50;4.50;;;;;11.43;30.79;101371.34;5042065;28;45870;-47
2022/04/04 11:58:13;;;;;;;;;4.00;4.00;;;;;11.46;30.84;101355.13;5038217;28;46005;-52
2022/04/04 12:00:53;;;;;;;;;3.25;3.25;;;;;11.47;31.04;101344.34;5039822;28;45350;-50
2022/04/04 12:03:18;;;;;;;;;3.00;3.00;;;;;11.71;31.12;101363.97;5045984;28;45476;-48
2022/04/04 12:05:47;;;;;;;;;4.75;3.00;;;;;11.75;31.14;101368.28;5046082;28;45485;-49
2022/04/04 12:08:14;;;;;;;;;4.50;4.00;;;;;11.78;31.35;101348.50;5060520;28;46953;-52
2022/04/04 12:10:42;;;;;;;;;5.00;4.00;;;;;11.74;31.33;101345.00;5054500;28;45448;-50
2022/04/04 12:13:09;;;;;;;;;3.50;3.50;;;;;11.81;31.67;101353.75;5041882;28;45341;-50
2022/04/04 12:15:40;;;;;;;;;6.25;5.25;;;;;11.65;31.65;101340.03;5047095;28;45481;-48
2022/04/04 12:18:07;;;;;;;;;4.25;3.75;;;;;11.60;32.32;101347.38;5055872;28;46169;-50
2022/04/04 12:20:37;;;;;;;;;5.25;4.75;;;;;11.72;32.39;101336.16;5061412;28;45370;-48
2022/04/04 12:25:48;;;;;;;;;2.75;2.75;;;;;11.93;31.81;101345.16;5055392;28;45372;-49
2022/04/04 12:28:25;;;;;;;;;3.25;3.25;;;;;11.90;32.76;101346.19;5041426;28;46313;-49
2022/04/04 12:30:52;;;;;;;;;3.75;3.75;;;;;11.64;33.48;101335.59;5040998;28;45301;-51
2022/04/04 12:33:18;;;;;;;;;3.75;3.75;;;;;11.63;33.09;101347.28;5041183;28;45338;-51
2022/04/04 12:35:48;;;;;;;;;1.00;1.00;;;;;11.41;33.40;101320.41;5040988;28;45985;-51
2022/04/04 12:38:45;;;;;;;;;3.75;2.25;;;;;11.47;34.20;101346.16;5041090;28;46585;-51
2022/04/04 12:41:15;;;;;;;;;3.50;3.50;;;;;11.46;34.29;101336.34;5000169;28;45432;-49
2022/04/04 12:43:43;;;;;;;;;3.00;3.00;;;;;11.51;34.13;101340.59;5041439;28;45342;-49
2022/04/04 12:46:41;;;;;;;;;3.00;3.00;;;;;11.36;35.37;101341.19;5040985;28;45349;-49
2022/04/04 12:49:23;;;;;;;;;11.25;4.00;;;;;11.45;35.40;101321.16;4996358;28;47043;-48
2022/04/04 12:51:58;;;;;;;;;5.50;5.00;;;;;11.50;35.33;101329.91;5041139;28;45432;-53
2022/04/04 12:54:25;;;;;;;;;3.00;3.00;;;;;11.54;35.39;101326.16;5047795;28;45433;-49
2022/04/04 12:56:52;;;;;;;;;6.75;4.25;;;;;11.58;35.70;101336.72;5040694;28;45424;-50
2022/04/04 12:59:18;;;;;;;;;4.00;3.00;;;;;11.27;35.50;101338.88;5040710;28;47252;-50
2022/04/04 13:02:09;;;;;;;;;5.00;5.00;;;;;11.23;35.44;101339.91;5053752;28;45321;-50
2022/04/04 13:04:35;;;;;;;;;8.25;3.00;;;;;10.79;37.15;101334.47;5060666;28;45409;-49
2022/04/04 13:07:01;;;;;;;;;4.00;2.75;;;;;10.76;36.77;101322.97;5044218;28;45673;-48
2022/04/04 13:09:29;;;;;;;;;4.00;4.00;;;;;10.75;37.36;101306.00;5040397;28;45399;-51
2022/04/04 13:11:56;;;;;;;;;4.00;4.00;;;;;10.94;36.66;101324.97;5040261;28;45436;-50
2022/04/04 13:14:22;;;;;;;;;4.25;4.00;;;;;10.93;36.84;101296.38;5040833;28;45291;-49
2022/04/04 13:16:54;;;;;;;;;3.75;3.75;;;;;11.18;36.46;101307.03;5039842;28;46265;-51
2022/04/04 13:19:21;;;;;;;;;5.00;3.75;;;;;11.29;36.59;101315.53;5040431;28;46349;-51
2022/04/04 13:21:49;;;;;;;;;6.25;5.50;;;;;11.22;37.18;101314.03;5040355;28;45337;-47
2022/04/04 13:24:15;;;;;;;;;5.75;3.00;;;;;11.10;36.97;101315.38;5040728;28;45292;-51
2022/04/04 13:26:42;;;;;;;;;4.25;4.25;;;;;11.06;37.98;101305.69;5052645;28;45322;-50
2022/04/04 13:29:09;;;;;;;;;4.00;3.75;;;;;11.08;37.66;101305.63;5060461;28;45264;-51
2022/04/04 13:31:35;;;;;;;;;6.25;5.00;;;;;10.83;38.37;101300.34;5060357;28;45364;-49
2022/04/04 13:34:01;;;;;;;;;8.00;6.25;;;;;10.83;38.75;101282.44;5060456;28;45472;-49
2022/04/04 13:36:26;;;;;;;;;3.00;3.00;;;;;10.94;37.88;101287.41;5060207;28;45259;-49
2022/04/04 13:38:55;;;;;;;;;4.75;4.75;;;;;11.08;38.30;101290.41;5060092;28;45663;-49
2022/04/04 13:41:22;;;;;;;;;5.00;5.00;;;;;11.08;38.93;101302.94;5059950;28;45584;-51
2022/04/04 13:43:48;;;;;;;;;4.50;4.25;;;;;11.13;38.83;101279.50;5060537;28;45314;-50
2022/04/04 13:46:18;;;;;;;;;6.25;5.00;;;;;11.14;38.74;101279.47;5060047;28;45404;-49
2022/04/04 13:48:45;;;;;;;;;5.00;4.00;;;;;11.18;39.02;101286.44;5060008;28;45928;-51
2022/04/04 13:51:11;;;;;;;;;4.75;4.75;;;;;11.29;39.54;101291.38;5060014;28;45313;-52
2022/04/04 13:53:36;;;;;;;;;8.75;6.00;;;;;11.38;39.76;101280.28;5060304;28;45380;-48
2022/04/04 13:56:02;;;;;;;;;5.50;5.00;;;;;11.38;39.42;101265.03;5040304;28;45392;-52
2022/04/04 13:58:27;;;;;;;;;8.75;7.50;;;;;11.36;39.79;101255.28;5039613;28;46362;-51
2022/04/04 14:00:53;;;;;;;;;6.00;6.00;;;;;11.53;39.38;101258.16;5045512;28;45314;-50
2022/04/04 14:03:18;;;;;;;;;7.00;6.00;;;;;11.55;39.89;101258.97;5060069;28;45390;-51
2022/04/04 14:05:44;;;;;;;;;7.25;3.50;;;;;11.56;40.03;101257.16;5054041;28;45518;-49
2022/04/04 14:08:12;;;;;;;;;11.00;7.00;;;;;11.53;39.79;101252.78;5039875;28;46109;-49
2022/04/04 14:10:40;;;;;;;;;6.00;6.00;;;;;11.63;40.08;101264.03;5039055;28;45390;-50
2022/04/04 14:13:05;;;;;;;;;7.25;7.25;;;;;11.61;40.00;101252.47;5039752;28;45379;-49
2022/04/04 14:15:31;;;;;;;;;5.50;5.50;;;;;11.66;40.02;101248.63;5039758;28;45376;-48
2022/04/04 14:17:56;;;;;;;;;8.25;7.25;;;;;11.73;39.79;101233.16;5039309;28;46126;-52
2022/04/04 14:20:21;;;;;;;;;8.50;8.00;;;;;11.42;40.78;101238.94;5039156;28;45416;-50
2022/04/04 14:22:49;;;;;;;;;11.00;9.00;;;;;11.14;41.51;101268.72;5039477;28;45498;-50
2022/04/04 14:25:14;;;;;;;;;7.75;6.75;;;;;11.05;41.93;101241.38;5040219;28;45397;-49
2022/04/04 14:27:40;;;;;;;;;9.00;9.00;;;;;11.03;42.35;101237.88;5058869;28;46033;-48
2022/04/04 14:30:06;;;;;;;;;9.00;8.00;;;;;10.91;42.83;101237.41;5059365;28;45239;-53
2022/04/04 14:32:31;;;;;;;;;10.00;8.25;;;;;10.92;44.06;101233.81;5059362;28;45321;-48
2022/04/04 14:34:56;;;;;;;;;8.75;8.75;;;;;10.99;43.71;101227.25;5059271;28;45302;-49
2022/04/04 14:37:22;;;;;;;;;11.75;9.50;;;;;11.03;43.63;101227.13;5059553;28;45383;-50
2022/04/04 14:39:47;;;;;;;;;9.00;9.00;;;;;11.00;44.26;101222.75;5059165;28;45257;-51
2022/04/04 14:42:13;;;;;;;;;13.50;9.00;;;;;11.07;43.73;101218.00;5059470;28;45277;-50
2022/04/04 14:44:48;;;;;;;;;8.00;8.00;;;;;11.07;43.96;101223.38;5059395;28;45544;-50
2022/04/04 14:47:14;;;;;;;;;9.00;9.00;;;;;11.08;43.36;101211.72;5059093;28;46959;-53
2022/04/04 14:49:39;;;;;;;;;9.00;9.00;;;;;10.97;43.76;101206.81;5059295;28;45593;-53
2022/04/04 14:52:05;;;;;;;;;8.75;8.75;;;;;10.86;44.01;101211.72;5059532;28;45439;-50
2022/04/04 14:54:30;;;;;;;;;9.00;9.00;;;;;10.84;44.08;101211.78;5051374;28;45738;-48
2022/04/04 14:56:56;;;;;;;;;9.00;5.00;;;;;10.85;43.90;101218.88;5038864;28;45359;-49
2022/04/04 14:59:22;;;;;;;;;6.25;5.25;;;;;10.84;43.83;101214.44;5038946;28;45486;-52
2022/04/04 15:01:47;;;;;;;;;7.50;5.75;;;;;10.83;43.58;101214.50;5052836;28;45457;-48
2022/04/04 15:04:13;;;;;;;;;9.00;8.00;;;;;10.74;43.30;101196.97;5058924;28;45917;-50
2022/04/04 15:06:38;;;;;;;;;10.00;8.00;;;;;10.83;43.44;101211.81;5045851;28;45400;-49
2022/04/04 15:09:05;;;;;;;;;7.75;7.00;;;;;10.71;43.53;101185.50;5038795;28;45270;-47
2022/04/04 15:11:31;;;;;;;;;5.00;5.00;;;;;10.86;43.20;101185.78;5038834;28;45318;-47
2022/04/04 15:13:56;;;;;;;;;8.25;6.00;;;;;10.73;43.54;101207.75;5038853;28;45314;-51
2022/04/04 15:16:21;;;;;;;;;10.75;5.50;;;;;10.79;43.48;101178.91;5038937;28;46117;-51
2022/04/04 15:18:47;;;;;;;;;4.75;4.75;;;;;10.66;43.93;101191.03;5038440;28;45334;-51
2022/04/04 15:21:12;;;;;;;;;7.50;5.75;;;;;10.72;43.78;101193.47;5038910;28;45254;-51
2022/04/04 15:23:38;;;;;;;;;8.50;7.00;;;;;10.65;44.25;101189.28;5038573;28;45343;-51
2022/04/04 15:26:03;;;;;;;;;9.50;5.75;;;;;10.61;44.96;101185.88;5045882;28;46245;-49
2022/04/04 15:28:29;;;;;;;;;8.00;8.00;;;;;10.59;45.44;101189.53;5058503;28;45335;-51
2022/04/04 15:30:55;;;;;;;;;8.75;7.00;;;;;10.45;46.47;101194.56;5058673;28;45246;-50
2022/04/04 15:33:21;;;;;;;;;8.00;5.25;;;;;10.42;47.19;101184.81;5058534;28;45529;-52
2022/04/04 15:35:47;;;;;;;;;8.75;8.00;;;;;10.57;47.17;101181.53;5054371;28;46083;-50
2022/04/04 15:38:13;;;;;;;;;10.75;8.50;;;;;10.55;47.36;101178.03;5034017;28;45612;-50
2022/04/04 15:40:39;;;;;;;;;8.75;8.75;;;;;10.55;47.25;101175.34;5057102;28;45423;-48
2022/04/04 15:43:04;;;;;;;;;7.00;7.00;;;;;10.53;47.20;101166.53;5039120;28;45317;-51
2022/04/04 15:45:32;;;;;;;;;9.00;9.00;;;;;10.46;47.11;101178.41;5047959;28;45484;-50
2022/04/04 15:47:58;;;;;;;;;8.75;8.75;;;;;10.42;47.75;101176.78;5057690;28;45554;-49
2022/04/04 15:50:24;;;;;;;;;10.25;10.00;;;;;10.48;47.80;101184.56;5045937;28;45293;-49
2022/04/04 15:52:50;;;;;;;;;11.75;10.00;;;;;10.49;48.10;101175.59;5038006;28;45413;-48
2022/04/04 15:55:15;;;;;;;;;10.25;8.00;;;;;10.57;48.04;101186.91;5040734;28;46055;-50
2022/04/04 15:57:40;;;;;;;;;11.50;10.75;;;;;10.54;47.52;101167.41;5040567;28;45373;-46
2022/04/04 16:00:11;;;;;;;;;11.25;11.00;;;;;10.53;47.71;101179.94;5057228;28;45281;-52
2022/04/04 16:02:40;;;;;;;;;9.25;8.50;;;;;10.44;47.54;101168.69;5037792;28;45952;-48